createdAt,value
2019-03-22T00:00:28.508Z,9.40
2019-03-22T00:02:58.010Z,9.40
2019-03-22T00:05:27.328Z,9.40
2019-03-22T00:07:56.595Z,9.30
2019-03-22T00:10:25.897Z,9.20
2019-03-22T00:12:55.162Z,9.20
2019-03-22T00:15:24.447Z,9.20
2019-03-22T00:17:53.745Z,9.10
2019-03-22T00:20:23.019Z,9.10
2019-03-22T00:22:52.307Z,9.00
2019-03-22T00:25:21.582Z,9.00
2019-03-22T00:27:51.167Z,9.00
2019-03-22T00:30:20.543Z,9.00
2019-03-22T00:32:49.822Z,8.70
2019-03-22T00:35:19.120Z,8.60
2019-03-22T00:37:48.409Z,8.60
2019-03-22T00:40:17.688Z,8.60
2019-03-22T00:42:46.968Z,8.60
2019-03-22T00:45:16.402Z,8.60
2019-03-22T00:47:45.698Z,8.60
2019-03-22T00:50:15.034Z,8.50
2019-03-22T00:52:44.688Z,8.30
2019-03-22T00:55:14.076Z,8.30
2019-03-22T00:57:43.390Z,8.30
2019-03-22T01:00:14.303Z,8.30
2019-03-22T01:02:43.595Z,8.30
2019-03-22T01:05:13.624Z,8.30
2019-03-22T01:07:43.251Z,8.30
2019-03-22T01:10:14.496Z,8.20
2019-03-22T01:12:44.079Z,8.10
2019-03-22T01:15:14.091Z,8.10
2019-03-22T01:17:43.459Z,8.00
2019-03-22T01:20:14.466Z,7.90
2019-03-22T01:22:43.766Z,7.90
2019-03-22T01:25:13.129Z,7.80
2019-03-22T01:27:42.402Z,7.80
2019-03-22T01:30:14.294Z,7.60
2019-03-22T01:32:43.839Z,7.40
2019-03-22T01:35:13.971Z,7.40
2019-03-22T01:37:43.251Z,7.30
2019-03-22T01:40:15.158Z,7.30
2019-03-22T01:42:44.491Z,7.30
2019-03-22T01:45:15.412Z,7.30
2019-03-22T01:47:44.678Z,7.20
2019-03-22T01:50:16.007Z,7.10
2019-03-22T01:52:45.284Z,7.00
2019-03-22T01:55:14.571Z,7.00
2019-03-22T01:57:53.085Z,7.00
2019-03-22T02:00:16.149Z,7.00
2019-03-22T02:02:45.434Z,7.10
2019-03-22T02:05:14.963Z,7.10
2019-03-22T02:07:44.507Z,7.10
2019-03-22T02:10:14.408Z,7.10
2019-03-22T02:12:43.699Z,7.10
2019-03-22T02:15:14.499Z,7.10
2019-03-22T02:17:43.909Z,7.10
2019-03-22T02:20:14.785Z,7.10
2019-03-22T02:22:44.304Z,7.00
2019-03-22T02:25:13.727Z,7.00
2019-03-22T02:27:43.611Z,7.00
2019-03-22T02:30:16.938Z,7.00
2019-03-22T02:32:46.509Z,7.00
2019-03-22T02:35:28.286Z,7.00
2019-03-22T02:37:47.063Z,7.00
2019-03-22T02:40:16.441Z,7.00
2019-03-22T02:42:45.736Z,7.00
2019-03-22T02:45:16.687Z,6.90
2019-03-22T02:47:45.953Z,6.90
2019-03-22T02:50:19.955Z,6.90
2019-03-22T02:52:46.369Z,6.90
2019-03-22T02:55:15.697Z,6.90
2019-03-22T02:57:44.994Z,6.90
2019-03-22T03:00:16.119Z,6.90
2019-03-22T03:02:45.396Z,6.80
2019-03-22T03:05:16.257Z,6.80
2019-03-22T03:07:45.707Z,6.60
2019-03-22T03:10:15.934Z,6.60
2019-03-22T03:12:45.670Z,6.70
2019-03-22T03:15:16.093Z,6.60
2019-03-22T03:17:45.346Z,6.60
2019-03-22T03:20:17.723Z,6.60
2019-03-22T03:22:47.194Z,6.60
2019-03-22T03:25:16.876Z,6.60
2019-03-22T03:27:46.236Z,6.50
2019-03-22T03:30:17.729Z,6.50
2019-03-22T03:32:47.012Z,6.30
2019-03-22T03:35:16.430Z,6.20
2019-03-22T03:37:46.051Z,6.10
2019-03-22T03:40:15.748Z,6.10
2019-03-22T03:42:45.033Z,6.10
2019-03-22T03:45:33.604Z,6.10
2019-03-22T03:48:05.318Z,6.20
2019-03-22T03:50:34.757Z,6.20
2019-03-22T03:53:04.771Z,6.10
2019-03-22T03:55:34.118Z,6.20
2019-03-22T03:58:03.525Z,6.30
2019-03-22T04:00:32.916Z,6.30
2019-03-22T04:03:02.217Z,6.30
2019-03-22T04:05:31.502Z,6.40
2019-03-22T04:08:00.763Z,6.40
2019-03-22T04:10:30.301Z,6.50
2019-03-22T04:12:59.592Z,6.50
2019-03-22T04:15:28.871Z,6.60
2019-03-22T04:17:58.156Z,6.60
2019-03-22T04:20:27.807Z,6.60
2019-03-22T04:22:57.079Z,6.60
2019-03-22T04:25:26.380Z,6.50
2019-03-22T04:27:55.919Z,6.50
2019-03-22T04:30:25.212Z,6.50
2019-03-22T04:32:54.486Z,6.50
2019-03-22T04:35:23.771Z,6.50
2019-03-22T04:37:53.063Z,6.50
2019-03-22T04:40:24.775Z,6.30
2019-03-22T04:42:54.056Z,6.30
2019-03-22T04:45:25.992Z,6.30
2019-03-22T04:47:58.447Z,6.30
2019-03-22T04:50:29.368Z,6.30
2019-03-22T04:53:00.028Z,6.20
2019-03-22T04:55:30.558Z,6.10
2019-03-22T04:58:00.207Z,6.10
2019-03-22T05:00:29.863Z,6.00
2019-03-22T05:02:59.382Z,5.90
2019-03-22T05:05:28.832Z,5.90
2019-03-22T05:07:58.687Z,5.90
2019-03-22T05:10:28.332Z,5.90
2019-03-22T05:12:59.942Z,5.90
2019-03-22T05:15:31.678Z,5.90
2019-03-22T05:18:02.490Z,5.90
2019-03-22T05:20:34.386Z,5.90
2019-03-22T05:23:05.078Z,5.90
2019-03-22T05:25:35.800Z,5.90
2019-03-22T05:28:07.423Z,5.80
2019-03-22T05:30:59.596Z,5.80
2019-03-22T05:33:29.141Z,5.80
2019-03-22T05:35:58.417Z,5.60
2019-03-22T05:38:27.696Z,5.60
2019-03-22T05:40:56.975Z,5.60
2019-03-22T05:43:26.350Z,5.50
2019-03-22T05:45:55.630Z,5.50
2019-03-22T05:48:24.918Z,5.60
2019-03-22T05:50:54.212Z,5.50
2019-03-22T05:53:23.494Z,5.60
2019-03-22T05:55:52.767Z,5.60
2019-03-22T05:58:22.063Z,5.70
2019-03-22T06:00:51.339Z,5.80
2019-03-22T06:03:20.632Z,5.80
2019-03-22T06:05:49.932Z,5.90
2019-03-22T06:08:19.215Z,6.00
2019-03-22T06:10:48.554Z,6.10
2019-03-22T06:13:17.850Z,6.20
2019-03-22T06:15:47.199Z,6.30
2019-03-22T06:18:16.479Z,6.40
2019-03-22T06:20:46.063Z,6.50
2019-03-22T06:23:16.172Z,6.70
2019-03-22T06:25:45.956Z,6.70
2019-03-22T06:28:15.296Z,6.80
2019-03-22T06:30:44.587Z,6.90
2019-03-22T06:33:13.875Z,6.80
2019-03-22T06:35:43.159Z,6.90
2019-03-22T06:38:12.443Z,6.90
2019-03-22T06:40:41.728Z,7.00
2019-03-22T06:43:11.023Z,7.00
2019-03-22T06:45:40.294Z,7.00
2019-03-22T06:48:09.584Z,7.10
2019-03-22T06:50:38.861Z,7.20
2019-03-22T06:53:08.151Z,7.30
2019-03-22T06:55:37.423Z,7.50
2019-03-22T06:58:07.007Z,7.50
2019-03-22T07:00:36.287Z,7.70
2019-03-22T07:03:05.572Z,7.80
2019-03-22T07:05:35.106Z,8.00
2019-03-22T07:08:04.383Z,8.00
2019-03-22T07:10:33.894Z,8.10
2019-03-22T07:13:03.419Z,8.10
2019-03-22T07:15:32.699Z,8.30
2019-03-22T07:18:01.984Z,8.40
2019-03-22T07:20:31.282Z,8.50
2019-03-22T07:23:00.827Z,8.60
2019-03-22T07:25:30.436Z,8.70
2019-03-22T07:27:59.843Z,8.80
2019-03-22T07:30:29.122Z,8.90
2019-03-22T07:32:58.411Z,9.00
2019-03-22T07:35:27.707Z,9.10
2019-03-22T07:37:56.987Z,9.30
2019-03-22T07:40:26.267Z,9.40
2019-03-22T07:42:55.568Z,9.60
2019-03-22T07:45:24.843Z,9.70
2019-03-22T07:47:55.872Z,9.90
2019-03-22T07:50:25.132Z,10.10
2019-03-22T07:52:54.435Z,10.20
2019-03-22T07:55:23.719Z,10.60
2019-03-22T07:57:53.003Z,10.90
2019-03-22T08:00:30.841Z,11.10
2019-03-22T08:02:53.531Z,11.10
2019-03-22T08:05:23.144Z,11.30
2019-03-22T08:07:52.752Z,11.60
2019-03-22T08:10:22.055Z,11.80
2019-03-22T08:12:51.679Z,11.80
2019-03-22T08:15:29.115Z,12.00
2019-03-22T08:17:58.689Z,12.10
2019-03-22T08:20:28.159Z,12.30
2019-03-22T08:22:57.507Z,12.60
2019-03-22T08:25:26.810Z,12.70
2019-03-22T08:27:56.095Z,13.00
2019-03-22T08:30:25.390Z,13.00
2019-03-22T08:32:54.671Z,13.20
2019-03-22T08:35:24.059Z,13.40
2019-03-22T08:37:53.352Z,13.60
2019-03-22T08:40:22.631Z,13.80
2019-03-22T08:42:51.976Z,14.00
2019-03-22T08:45:21.583Z,14.30
2019-03-22T08:47:50.885Z,14.30
2019-03-22T08:50:20.493Z,14.40
2019-03-22T08:52:49.793Z,14.40
2019-03-22T08:55:19.078Z,14.40
2019-03-22T08:57:48.372Z,14.70
2019-03-22T09:00:18.186Z,14.90
2019-03-22T09:02:49.732Z,15.30
2019-03-22T09:05:18.532Z,15.60
2019-03-22T09:07:47.863Z,15.60
2019-03-22T09:10:17.250Z,15.70
2019-03-22T09:12:46.586Z,15.90
2019-03-22T09:15:15.928Z,16.00
2019-03-22T09:17:45.237Z,16.20
2019-03-22T09:20:14.605Z,16.30
2019-03-22T09:22:43.877Z,16.40
2019-03-22T09:25:13.319Z,16.50
2019-03-22T09:27:42.606Z,16.60
2019-03-22T09:30:15.235Z,16.80
2019-03-22T09:32:44.527Z,16.80
2019-03-22T09:35:13.967Z,16.70
2019-03-22T09:37:43.255Z,16.90
2019-03-22T09:40:12.711Z,16.80
2019-03-22T09:42:42.270Z,17.00
2019-03-22T09:45:14.199Z,17.10
2019-03-22T09:47:42.871Z,17.20
2019-03-22T09:50:12.998Z,17.10
2019-03-22T09:52:42.355Z,17.30
2019-03-22T09:55:13.827Z,17.40
2019-03-22T09:57:42.992Z,17.40
2019-03-22T10:00:34.943Z,17.40
2019-03-22T10:03:05.051Z,17.40
2019-03-22T10:05:34.446Z,17.70
2019-03-22T10:08:03.780Z,17.70
2019-03-22T10:10:33.333Z,17.80
2019-03-22T10:13:02.723Z,18.00
2019-03-22T10:15:31.982Z,18.00
2019-03-22T10:18:01.349Z,17.90
2019-03-22T10:20:30.635Z,17.70
2019-03-22T10:22:59.988Z,17.70
2019-03-22T10:25:29.272Z,17.80
2019-03-22T10:27:58.852Z,18.00
2019-03-22T10:30:28.481Z,18.40
2019-03-22T10:32:57.751Z,18.60
2019-03-22T10:35:27.149Z,18.70
2019-03-22T10:38:00.984Z,18.90
2019-03-22T10:40:27.441Z,19.00
2019-03-22T10:42:56.775Z,19.10
2019-03-22T10:45:26.093Z,19.30
2019-03-22T10:47:55.367Z,19.60
2019-03-22T10:50:24.733Z,19.70
2019-03-22T10:52:54.429Z,20.10
2019-03-22T10:55:30.218Z,20.00
2019-03-22T10:57:55.591Z,20.00
2019-03-22T11:00:25.009Z,20.10
2019-03-22T11:02:54.295Z,19.90
2019-03-22T11:05:23.588Z,19.90
2019-03-22T11:07:52.876Z,19.90
2019-03-22T11:10:22.495Z,19.90
2019-03-22T11:12:51.833Z,20.00
2019-03-22T11:15:21.161Z,20.30
2019-03-22T11:17:50.443Z,20.30
2019-03-22T11:20:20.004Z,20.70
2019-03-22T11:22:49.612Z,20.90
2019-03-22T11:25:18.918Z,20.50
2019-03-22T11:27:48.199Z,20.50
2019-03-22T11:30:18.238Z,20.20
2019-03-22T11:32:47.840Z,20.00
2019-03-22T11:35:17.127Z,19.80
2019-03-22T11:37:46.407Z,19.90
2019-03-22T11:40:17.443Z,20.00
2019-03-22T11:42:46.979Z,20.00
2019-03-22T11:45:21.186Z,20.00
2019-03-22T11:47:50.987Z,20.00
2019-03-22T11:50:20.300Z,20.00
2019-03-22T11:52:49.819Z,19.90
2019-03-22T11:55:19.111Z,19.90
2019-03-22T11:57:48.398Z,20.00
2019-03-22T12:00:27.487Z,20.00
2019-03-22T12:02:56.767Z,19.90
2019-03-22T12:05:26.379Z,20.00
2019-03-22T12:07:55.679Z,19.80
2019-03-22T12:10:25.268Z,19.60
2019-03-22T12:12:54.595Z,19.80
2019-03-22T12:15:24.373Z,19.90
2019-03-22T12:17:53.741Z,20.00
2019-03-22T12:20:23.866Z,19.90
2019-03-22T12:22:53.167Z,19.60
2019-03-22T12:25:24.798Z,19.90
2019-03-22T12:27:54.097Z,20.20
2019-03-22T12:30:23.667Z,20.40
2019-03-22T12:32:52.967Z,20.50
2019-03-22T12:35:22.735Z,20.40
2019-03-22T12:37:52.027Z,20.30
2019-03-22T12:40:23.222Z,20.20
2019-03-22T12:42:53.447Z,20.00
2019-03-22T12:45:30.551Z,19.80
2019-03-22T12:48:00.240Z,19.60
2019-03-22T12:50:29.811Z,19.50
2019-03-22T12:52:59.357Z,19.40
2019-03-22T12:55:28.667Z,19.50
2019-03-22T12:57:59.491Z,19.60
2019-03-22T13:00:29.176Z,19.60
2019-03-22T13:02:58.462Z,19.60
2019-03-22T13:05:27.758Z,19.70
2019-03-22T13:07:57.059Z,19.50
2019-03-22T13:10:27.484Z,19.40
2019-03-22T13:12:57.247Z,19.60
2019-03-22T13:15:26.523Z,19.60
2019-03-22T13:17:55.825Z,19.60
2019-03-22T13:20:25.357Z,19.50
2019-03-22T13:22:54.654Z,19.50
2019-03-22T13:25:23.947Z,19.60
2019-03-22T13:27:53.240Z,19.80
2019-03-22T13:30:28.392Z,19.90
2019-03-22T13:32:57.692Z,20.00
2019-03-22T13:35:26.972Z,20.20
2019-03-22T13:37:56.264Z,20.50
2019-03-22T13:40:25.564Z,21.00
2019-03-22T13:42:54.919Z,21.30
2019-03-22T13:45:24.207Z,21.40
2019-03-22T13:47:53.511Z,21.40
2019-03-22T13:50:22.870Z,21.20
2019-03-22T13:52:52.267Z,20.90
2019-03-22T13:55:21.539Z,20.60
2019-03-22T13:57:50.839Z,20.40
2019-03-22T14:00:20.112Z,20.10
2019-03-22T14:02:49.399Z,20.00
2019-03-22T14:05:18.703Z,20.20
2019-03-22T14:07:48.001Z,20.50
2019-03-22T14:10:28.872Z,20.90
2019-03-22T14:12:59.800Z,21.40
2019-03-22T14:15:29.426Z,22.00
2019-03-22T14:17:59.043Z,22.50
2019-03-22T14:20:28.407Z,22.60
2019-03-22T14:22:57.689Z,22.70
2019-03-22T14:25:27.239Z,23.00
2019-03-22T14:27:56.516Z,23.50
2019-03-22T14:30:25.802Z,23.90
2019-03-22T14:32:55.755Z,24.20
2019-03-22T14:35:25.363Z,24.50
2019-03-22T14:37:54.971Z,24.90
2019-03-22T14:40:24.330Z,25.40
2019-03-22T14:42:53.610Z,25.60
2019-03-22T14:45:22.902Z,25.80
2019-03-22T14:47:52.175Z,26.10
2019-03-22T14:50:21.475Z,26.10
2019-03-22T14:52:50.755Z,25.80
2019-03-22T14:55:20.043Z,25.80
2019-03-22T14:57:52.234Z,25.60
2019-03-22T15:00:20.296Z,25.80
2019-03-22T15:02:49.594Z,25.80
2019-03-22T15:05:18.868Z,25.80
2019-03-22T15:07:48.423Z,25.90
2019-03-22T15:10:17.695Z,25.80
2019-03-22T15:12:46.988Z,26.00
2019-03-22T15:15:23.932Z,26.00
2019-03-22T15:18:00.584Z,26.30
2019-03-22T15:20:47.900Z,26.40
2019-03-22T15:23:24.718Z,26.70
2019-03-22T15:26:11.707Z,26.80
2019-03-22T15:28:58.952Z,26.50
2019-03-22T15:31:42.039Z,26.40
2019-03-22T15:34:15.763Z,26.40
2019-03-22T15:37:03.090Z,26.30
2019-03-22T15:39:50.471Z,26.20
2019-03-22T15:42:19.773Z,26.10
2019-03-22T15:44:49.084Z,26.20
2019-03-22T15:47:18.407Z,26.40
2019-03-22T15:49:47.995Z,26.60
2019-03-22T15:52:17.289Z,26.80
2019-03-22T15:54:46.566Z,26.90
2019-03-22T15:57:15.839Z,26.90
2019-03-22T15:59:45.128Z,26.80
2019-03-22T16:02:14.401Z,26.90
2019-03-22T16:04:43.698Z,27.30
2019-03-22T16:07:13.061Z,27.70
2019-03-22T16:09:42.335Z,27.90
2019-03-22T16:12:11.623Z,28.20
2019-03-22T16:14:41.211Z,28.70
2019-03-22T16:17:10.825Z,29.00
2019-03-22T16:19:40.183Z,28.80
2019-03-22T16:22:09.480Z,28.90
2019-03-22T16:24:38.755Z,29.20
2019-03-22T16:27:08.051Z,29.30
2019-03-22T16:29:37.343Z,29.60
2019-03-22T16:32:06.952Z,29.60
2019-03-22T16:34:36.226Z,29.60
2019-03-22T16:37:05.515Z,29.70
2019-03-22T16:39:34.791Z,29.80
2019-03-22T16:42:04.159Z,29.80
2019-03-22T16:44:33.431Z,29.70
2019-03-22T16:47:02.721Z,29.60
2019-03-22T16:49:32.231Z,29.30
2019-03-22T16:52:01.551Z,29.10
2019-03-22T16:54:30.943Z,28.70
2019-03-22T16:57:00.226Z,28.40
2019-03-22T16:59:29.499Z,27.60
2019-03-22T17:01:58.790Z,27.20
2019-03-22T17:04:28.083Z,27.10
2019-03-22T17:06:57.563Z,26.50
2019-03-22T17:09:27.087Z,25.60
2019-03-22T17:11:56.425Z,24.70
2019-03-22T17:14:25.710Z,23.70
2019-03-22T17:16:55.040Z,23.00
2019-03-22T17:19:24.668Z,22.40
2019-03-22T17:21:54.192Z,21.80
2019-03-22T17:24:23.482Z,21.20
2019-03-22T17:26:52.759Z,20.70
2019-03-22T17:29:22.044Z,20.20
2019-03-22T17:31:51.634Z,19.80
2019-03-22T17:34:20.946Z,19.50
2019-03-22T17:36:50.487Z,19.20
2019-03-22T17:39:20.095Z,19.00
2019-03-22T17:41:49.366Z,18.80
2019-03-22T17:44:18.736Z,18.60
2019-03-22T17:46:48.011Z,18.40
2019-03-22T17:49:17.311Z,18.20
2019-03-22T17:51:46.583Z,18.00
2019-03-22T17:54:15.882Z,17.80
2019-03-22T17:56:45.236Z,17.60
2019-03-22T17:59:14.507Z,17.40
2019-03-22T18:01:44.093Z,17.30
2019-03-22T18:04:13.444Z,17.00
2019-03-22T18:06:42.739Z,16.80
2019-03-22T18:09:12.018Z,16.60
2019-03-22T18:11:41.307Z,16.50
2019-03-22T18:14:10.578Z,16.30
2019-03-22T18:16:39.871Z,16.20
2019-03-22T18:19:09.486Z,16.00
2019-03-22T18:21:38.907Z,15.90
2019-03-22T18:24:08.180Z,15.70
2019-03-22T18:26:37.530Z,15.60
2019-03-22T18:29:07.159Z,15.40
2019-03-22T18:31:36.461Z,15.30
2019-03-22T18:34:05.755Z,15.10
2019-03-22T18:36:35.347Z,15.00
2019-03-22T18:39:07.889Z,14.90
2019-03-22T18:41:38.951Z,14.80
2019-03-22T18:44:08.243Z,14.70
2019-03-22T18:46:37.620Z,14.60
2019-03-22T18:49:06.987Z,14.50
2019-03-22T18:51:36.308Z,14.30
2019-03-22T18:54:05.988Z,14.20
2019-03-22T18:56:35.281Z,14.20
2019-03-22T18:59:04.591Z,14.10
2019-03-22T19:01:33.910Z,14.00
2019-03-22T19:04:03.458Z,13.90
2019-03-22T19:06:32.763Z,13.80
2019-03-22T19:09:02.055Z,13.70
2019-03-22T19:11:31.600Z,13.60
2019-03-22T19:14:00.917Z,13.50
2019-03-22T19:16:30.192Z,13.40
2019-03-22T19:18:59.491Z,13.30
2019-03-22T19:21:28.763Z,13.20
2019-03-22T19:23:58.067Z,13.10
2019-03-22T19:26:27.414Z,13.00
2019-03-22T19:28:56.721Z,12.90
2019-03-22T19:31:26.234Z,12.90
2019-03-22T19:33:55.530Z,12.80
2019-03-22T19:36:24.887Z,12.80
2019-03-22T19:38:54.417Z,12.70
2019-03-22T19:41:23.716Z,12.60
2019-03-22T19:43:53.002Z,12.50
2019-03-22T19:46:22.286Z,12.50
2019-03-22T19:48:51.827Z,12.40
2019-03-22T19:51:21.103Z,12.40
2019-03-22T19:53:50.402Z,12.40
2019-03-22T19:56:19.707Z,12.30
2019-03-22T19:58:48.994Z,12.20
2019-03-22T20:01:18.527Z,12.00
2019-03-22T20:03:47.816Z,12.00
2019-03-22T20:06:17.115Z,12.00
2019-03-22T20:08:46.403Z,11.90
2019-03-22T20:11:15.702Z,11.90
2019-03-22T20:13:45.005Z,11.80
2019-03-22T20:16:14.370Z,11.80
2019-03-22T20:18:43.894Z,11.80
2019-03-22T20:21:13.183Z,11.70
2019-03-22T20:23:53.065Z,11.70
2019-03-22T20:26:13.464Z,11.60
2019-03-22T20:28:42.770Z,11.60
2019-03-22T20:31:12.094Z,11.60
2019-03-22T20:33:41.416Z,11.50
2019-03-22T20:36:10.729Z,11.50
2019-03-22T20:38:40.088Z,11.40
2019-03-22T20:41:09.395Z,11.40
2019-03-22T20:43:38.798Z,11.40
2019-03-22T20:46:08.091Z,11.30
2019-03-22T20:48:37.399Z,11.20
2019-03-22T20:51:06.735Z,11.20
2019-03-22T20:53:36.311Z,11.10
2019-03-22T20:56:05.955Z,11.10
2019-03-22T20:58:35.492Z,11.00
2019-03-22T21:01:04.775Z,11.00
2019-03-22T21:03:34.287Z,11.00
2019-03-22T21:06:04.664Z,10.90
2019-03-22T21:08:34.122Z,10.90
2019-03-22T21:11:03.496Z,10.90
2019-03-22T21:13:32.851Z,10.80
2019-03-22T21:16:02.273Z,10.80
2019-03-22T21:18:31.871Z,10.70
2019-03-22T21:21:01.197Z,10.70
2019-03-22T21:23:36.422Z,10.70
2019-03-22T21:26:01.431Z,10.60
2019-03-22T21:28:30.714Z,10.50
2019-03-22T21:31:00.002Z,10.50
2019-03-22T21:33:29.297Z,10.40
2019-03-22T21:35:58.583Z,10.40
2019-03-22T21:38:27.862Z,10.40
2019-03-22T21:40:57.159Z,10.30
2019-03-22T21:43:26.456Z,10.30
2019-03-22T21:45:55.731Z,10.20
2019-03-22T21:48:25.026Z,10.20
2019-03-22T21:50:54.311Z,10.20
2019-03-22T21:53:23.927Z,10.20
2019-03-22T21:55:54.336Z,10.20
2019-03-22T21:58:23.831Z,10.10
2019-03-22T22:00:53.107Z,10.10
2019-03-22T22:03:22.669Z,10.00
2019-03-22T22:05:51.960Z,10.10
2019-03-22T22:08:21.246Z,10.00
2019-03-22T22:10:59.414Z,10.00
2019-03-22T22:13:21.511Z,10.00
2019-03-22T22:15:50.798Z,10.00
2019-03-22T22:18:20.311Z,9.90
2019-03-22T22:20:49.603Z,9.90
2019-03-22T22:23:19.376Z,9.90
2019-03-22T22:25:49.031Z,9.90
2019-03-22T22:28:18.399Z,9.80
2019-03-22T22:30:47.699Z,9.80
2019-03-22T22:33:17.247Z,9.80
2019-03-22T22:35:47.023Z,9.80
2019-03-22T22:38:16.386Z,9.70
2019-03-22T22:40:45.675Z,9.70
2019-03-22T22:43:14.946Z,9.70
2019-03-22T22:45:44.238Z,9.60
2019-03-22T22:48:13.510Z,9.60
2019-03-22T22:50:42.866Z,9.60
2019-03-22T22:53:12.154Z,9.50
2019-03-22T22:55:41.436Z,9.50
2019-03-22T22:58:10.969Z,9.50
2019-03-22T23:00:40.623Z,9.50
2019-03-22T23:03:10.183Z,9.60
2019-03-22T23:05:39.482Z,9.60
2019-03-22T23:08:08.771Z,9.50
2019-03-22T23:10:38.520Z,9.50
2019-03-22T23:13:07.837Z,9.40
2019-03-22T23:15:37.102Z,9.40
2019-03-22T23:18:06.397Z,9.30
2019-03-22T23:20:36.003Z,9.30
2019-03-22T23:23:05.294Z,9.30
2019-03-22T23:25:34.664Z,9.30
2019-03-22T23:28:04.019Z,9.20
2019-03-22T23:30:33.295Z,9.10
2019-03-22T23:33:02.928Z,9.00
2019-03-22T23:35:32.195Z,9.00
2019-03-22T23:38:01.482Z,9.00
2019-03-22T23:40:30.767Z,8.90
2019-03-22T23:43:00.051Z,8.90
2019-03-22T23:45:29.330Z,8.90
2019-03-22T23:47:58.602Z,8.80
2019-03-22T23:50:27.896Z,8.80
2019-03-22T23:52:57.183Z,8.80
2019-03-22T23:55:26.465Z,8.70
2019-03-22T23:57:55.757Z,8.60
